In Rescue
 
Open Full Screen Window  High Contrast Mode
Wind Gusting 00 knots
05
July 22, 2019 11:42 PM CDT
Weather Information
Wind Direction
  300 °
Wind Speed
  05 kt (6 mph)
Wind Gust
  00 kt (0 mph)
Altimeter
30.21 in
Visibility
10 SM
Temperature
15° C
59° F
Dewpoint
13° C
55° F
Humidity
88%
1hr Rain Fall
00.00 in.
24hr Rain Fall
00.00 in.
Sky Condition
Clear
VFR

METAR KFKA 230442Z AUTO 30005KT 10SM CLR 15/13 A3021 RMK AO2 T01510125

FAA Disclaimer: The data displayed is for advisory purposes only and is not to be used for flight planning or operations.